Time;durP1;ratioP1;P1;durP2;ratioP2;P2;SDS_P1;SDS_P2;PMS_P1;PMS_P2;Temp;Humidity;BMP_temperature;BMP_pressure;BME280_temperature;BME280_humidity;BME280_pressure;Samples;Min_cycle;Max_cycle;Signal;HPM_P1;HPM_P2
2022/04/14 00:00:21;;;;;;;9.90;6.72;;;14.70;44.50;;;;;;5131583;27;20030;-66
2022/04/14 00:02:46;;;;;;;15.40;7.35;;;14.70;44.60;;;;;;5112530;27;20027;-66
2022/04/14 00:05:12;;;;;;;14.13;6.47;;;14.70;44.70;;;;;;5132494;27;20033;-66
2022/04/14 00:07:39;;;;;;;13.43;6.85;;;14.70;44.80;;;;;;5132030;27;20230;-65
2022/04/14 00:10:06;;;;;;;13.38;7.18;;;14.70;44.80;;;;;;5114422;28;20026;-65
2022/04/14 00:12:32;;;;;;;11.50;6.20;;;14.70;45.00;;;;;;5131347;27;20026;-67
2022/04/14 00:14:58;;;;;;;10.95;6.93;;;14.70;45.10;;;;;;5132449;28;20027;-67
2022/04/14 00:17:24;;;;;;;13.70;7.00;;;14.70;45.20;;;;;;5131633;27;20023;-67
2022/04/14 00:19:50;;;;;;;10.18;6.45;;;14.60;45.30;;;;;;5132187;28;20020;-64
2022/04/14 00:22:16;;;;;;;10.88;6.35;;;14.60;45.70;;;;;;5131402;27;20175;-62
2022/04/14 00:24:41;;;;;;;19.73;7.00;;;14.50;45.80;;;;;;5131620;27;20035;-65
2022/04/14 00:27:07;;;;;;;12.65;6.28;;;14.50;45.90;;;;;;5131997;27;20055;-67
2022/04/14 00:29:34;;;;;;;10.35;6.20;;;14.50;45.90;;;;;;5131984;27;20059;-66
2022/04/14 00:31:59;;;;;;;12.23;6.40;;;14.50;45.90;;;;;;5132311;27;20049;-65
2022/04/14 00:34:25;;;;;;;14.25;6.93;;;14.50;46.00;;;;;;5131820;27;20406;-67
2022/04/14 00:36:51;;;;;;;16.25;6.43;;;14.40;46.00;;;;;;5113799;28;20583;-67
2022/04/14 00:39:16;;;;;;;11.95;6.03;;;14.50;46.10;;;;;;5096292;28;20399;-66
2022/04/14 00:41:43;;;;;;;11.68;6.50;;;14.50;46.00;;;;;;5113189;28;20475;-71
2022/04/14 00:44:08;;;;;;;12.43;6.85;;;14.50;46.00;;;;;;5131636;27;20096;-68
2022/04/14 00:46:34;;;;;;;11.02;6.90;;;14.40;46.00;;;;;;5131384;27;20023;-65
2022/04/14 00:49:00;;;;;;;13.80;6.95;;;14.40;46.10;;;;;;5132247;27;20023;-66
2022/04/14 00:51:26;;;;;;;12.90;6.50;;;14.50;46.00;;;;;;5131621;27;20109;-66
2022/04/14 00:53:52;;;;;;;9.85;6.25;;;14.50;45.90;;;;;;5132003;28;20110;-67
2022/04/14 00:56:17;;;;;;;13.02;6.28;;;14.50;46.00;;;;;;5131464;27;20569;-68
2022/04/14 00:58:43;;;;;;;9.63;6.10;;;14.40;45.90;;;;;;5131878;27;20132;-67
2022/04/14 01:01:09;;;;;;;15.38;6.53;;;14.50;46.00;;;;;;5131658;27;20038;-65
2022/04/14 01:03:36;;;;;;;10.18;6.65;;;14.50;45.90;;;;;;5096507;28;20160;-68
2022/04/14 01:06:03;;;;;;;11.95;6.03;;;14.50;46.00;;;;;;5131439;28;20059;-65
2022/04/14 01:08:30;;;;;;;14.82;7.07;;;14.50;45.90;;;;;;5112697;28;20487;-67
2022/04/14 01:10:57;;;;;;;11.10;6.45;;;14.50;45.90;;;;;;5131559;28;20106;-66
2022/04/14 01:13:23;;;;;;;11.50;6.50;;;14.40;45.90;;;;;;5132007;27;20037;-66
2022/04/14 01:15:49;;;;;;;11.90;6.43;;;14.40;46.00;;;;;;5135166;27;20109;-67
2022/04/14 01:18:17;;;;;;;10.55;6.43;;;14.40;46.10;;;;;;5116946;27;20088;-68
2022/04/14 01:20:43;;;;;;;13.80;6.70;;;14.30;46.40;;;;;;5135265;27;20027;-66
2022/04/14 01:23:10;;;;;;;14.57;5.88;;;14.30;46.50;;;;;;5116888;27;20087;-67
2022/04/14 01:25:37;;;;;;;11.05;6.03;;;14.20;46.60;;;;;;5116113;27;20027;-66
2022/04/14 01:28:04;;;;;;;12.45;6.25;;;14.10;46.90;;;;;;5135388;27;20391;-66
2022/04/14 01:30:30;;;;;;;8.88;5.60;;;14.00;47.00;;;;;;5115279;27;20019;-66
2022/04/14 01:32:56;;;;;;;12.27;6.88;;;14.00;47.20;;;;;;5134517;27;20024;-66
2022/04/14 01:35:23;;;;;;;10.88;5.65;;;14.00;47.20;;;;;;5133860;27;20102;-64
2022/04/14 01:37:49;;;;;;;15.07;6.22;;;14.00;47.20;;;;;;5135327;27;20035;-66
2022/04/14 01:40:15;;;;;;;9.43;6.32;;;13.90;47.40;;;;;;5134695;27;20031;-67
2022/04/14 01:42:41;;;;;;;11.88;6.30;;;13.90;47.40;;;;;;5134211;27;20128;-66
2022/04/14 01:45:09;;;;;;;10.95;6.55;;;13.80;47.50;;;;;;5134539;27;20144;-66
2022/04/14 01:47:42;;;;;;;9.63;6.05;;;13.80;47.60;;;;;;5134053;27;20027;-66
2022/04/14 01:50:10;;;;;;;9.55;5.97;;;13.80;47.80;;;;;;5116729;27;20023;-66
2022/04/14 01:52:36;;;;;;;15.00;6.85;;;13.80;47.90;;;;;;5133866;27;20107;-67
2022/04/14 01:55:04;;;;;;;12.27;6.78;;;13.80;47.70;;;;;;5116199;27;20027;-65
2022/04/14 01:57:30;;;;;;;12.55;6.80;;;13.80;47.70;;;;;;5133842;27;20023;-65
2022/04/14 02:00:00;;;;;;;13.32;6.03;;;13.80;47.70;;;;;;5116153;27;20054;-66
2022/04/14 02:02:26;;;;;;;10.40;6.57;;;13.80;47.60;;;;;;5115385;27;20019;-67
2022/04/14 02:04:53;;;;;;;10.00;6.18;;;13.80;47.60;;;;;;5115519;27;20072;-67
2022/04/14 02:07:19;;;;;;;12.90;6.45;;;13.80;47.50;;;;;;5115229;27;20035;-62
2022/04/14 02:12:29;;;;;;;9.57;5.70;;;13.80;47.70;;;;;;5133666;27;20099;-66
2022/04/14 02:14:55;;;;;;;11.15;6.78;;;13.70;47.70;;;;;;5115883;27;20463;-66
2022/04/14 02:17:21;;;;;;;15.63;6.60;;;13.70;47.80;;;;;;5133224;27;20472;-63
2022/04/14 02:19:47;;;;;;;9.25;5.78;;;13.70;47.80;;;;;;5134181;27;20020;-65
2022/04/14 02:22:13;;;;;;;11.32;6.55;;;13.60;47.80;;;;;;5133968;27;20027;-66
2022/04/14 02:24:39;;;;;;;11.27;5.90;;;13.60;47.80;;;;;;5132695;27;20099;-66
2022/04/14 02:27:05;;;;;;;12.65;6.07;;;13.60;47.80;;;;;;5098974;27;20054;-66
2022/04/14 02:29:30;;;;;;;8.73;6.05;;;13.50;47.80;;;;;;5133452;27;20076;-66
2022/04/14 02:31:57;;;;;;;11.60;5.53;;;13.60;47.70;;;;;;5134211;27;20034;-65
2022/04/14 02:34:26;;;;;;;8.45;5.78;;;13.60;47.60;;;;;;5133695;27;20520;-64
2022/04/14 02:37:11;;;;;;;10.18;5.82;;;13.70;47.50;;;;;;5133645;27;20075;-66
2022/04/14 02:39:36;;;;;;;11.73;5.85;;;13.70;47.60;;;;;;5132810;27;20015;-68
2022/04/14 02:42:02;;;;;;;10.43;5.60;;;13.70;47.50;;;;;;5133744;27;20051;-67
2022/04/14 02:44:28;;;;;;;10.70;5.55;;;13.70;47.30;;;;;;5132683;27;20110;-64
2022/04/14 02:46:53;;;;;;;8.40;5.50;;;13.60;47.40;;;;;;5115165;27;20039;-65
2022/04/14 02:49:21;;;;;;;10.88;5.50;;;13.60;47.30;;;;;;5114831;27;20030;-62
2022/04/14 02:51:46;;;;;;;11.93;6.05;;;13.70;47.30;;;;;;5132921;27;20042;-66
2022/04/14 02:54:12;;;;;;;9.88;6.32;;;13.70;47.30;;;;;;5114868;27;20071;-66
2022/04/14 02:56:38;;;;;;;12.70;6.38;;;13.70;47.40;;;;;;5133188;27;20496;-66
2022/04/14 02:59:03;;;;;;;7.93;5.65;;;13.70;47.40;;;;;;5133709;27;20124;-65
2022/04/14 03:01:29;;;;;;;9.10;5.22;;;13.60;47.50;;;;;;5132533;27;20024;-64
2022/04/14 03:03:55;;;;;;;13.90;5.35;;;13.60;47.50;;;;;;5114717;27;20110;-66
2022/04/14 03:06:20;;;;;;;12.85;5.53;;;13.60;47.50;;;;;;5131828;27;20027;-62
2022/04/14 03:08:46;;;;;;;12.45;6.00;;;13.50;47.60;;;;;;5132626;27;20080;-67
2022/04/14 03:11:12;;;;;;;7.82;5.50;;;13.40;47.60;;;;;;5133265;27;20258;-66
2022/04/14 03:13:39;;;;;;;9.85;5.68;;;13.50;47.70;;;;;;5113998;27;20087;-66
2022/04/14 03:16:05;;;;;;;9.95;5.68;;;13.40;47.90;;;;;;5132081;27;20468;-63
2022/04/14 03:18:30;;;;;;;16.25;5.72;;;13.40;48.20;;;;;;5113611;27;20114;-65
2022/04/14 03:20:56;;;;;;;8.38;5.60;;;13.30;48.50;;;;;;5132672;27;20102;-65
2022/04/14 03:23:23;;;;;;;8.45;5.47;;;13.20;48.70;;;;;;5132602;27;20024;-66
2022/04/14 03:25:49;;;;;;;14.15;6.13;;;13.10;49.50;;;;;;5132499;27;20039;-65
2022/04/14 03:28:15;;;;;;;9.35;6.10;;;13.10;49.20;;;;;;5132956;27;20495;-65
2022/04/14 03:30:41;;;;;;;11.75;5.40;;;13.00;49.30;;;;;;5113823;27;20124;-66
2022/04/14 03:33:06;;;;;;;10.20;5.40;;;13.00;49.60;;;;;;5114287;27;20455;-66
2022/04/14 03:35:32;;;;;;;10.85;6.13;;;12.90;49.60;;;;;;5132259;27;20047;-65
2022/04/14 03:37:58;;;;;;;14.57;5.95;;;12.90;49.40;;;;;;5131728;27;20389;-65
2022/04/14 03:40:24;;;;;;;14.65;5.60;;;12.90;49.30;;;;;;5131099;27;20102;-67
2022/04/14 03:42:49;;;;;;;11.30;6.15;;;12.90;49.20;;;;;;5111414;27;20095;-65
2022/04/14 03:45:34;;;;;;;9.25;5.63;;;12.90;49.30;;;;;;5114017;27;20030;-65
2022/04/14 03:47:59;;;;;;;10.27;5.78;;;12.80;49.50;;;;;;5132077;27;20102;-66
2022/04/14 03:50:25;;;;;;;8.77;5.85;;;12.80;49.60;;;;;;5131556;27;20102;-65
2022/04/14 03:52:51;;;;;;;12.73;6.50;;;12.80;49.60;;;;;;5113965;27;20027;-66
2022/04/14 03:55:16;;;;;;;10.82;6.15;;;12.80;49.60;;;;;;5132526;27;20468;-66
2022/04/14 03:57:42;;;;;;;10.10;5.93;;;12.80;49.80;;;;;;5132018;27;20019;-66
2022/04/14 04:00:08;;;;;;;9.32;5.60;;;12.70;49.90;;;;;;5132677;27;20050;-66
2022/04/14 04:02:36;;;;;;;10.32;5.95;;;12.70;49.80;;;;;;5132134;27;20100;-65
2022/04/14 04:05:02;;;;;;;13.05;5.72;;;12.70;49.90;;;;;;5132969;27;20063;-66
2022/04/14 04:07:28;;;;;;;8.25;6.00;;;12.70;49.90;;;;;;5113668;28;20027;-66
2022/04/14 04:09:54;;;;;;;13.07;5.65;;;12.70;50.00;;;;;;5114665;27;20019;-66
2022/04/14 04:12:21;;;;;;;13.98;6.10;;;12.70;50.00;;;;;;5114409;28;20466;-63
2022/04/14 04:14:48;;;;;;;13.18;5.72;;;12.70;50.50;;;;;;5132437;27;20062;-65
2022/04/14 04:17:17;;;;;;;11.63;6.10;;;12.70;49.90;;;;;;5132498;27;20023;-67
2022/04/14 04:19:43;;;;;;;12.13;6.35;;;12.70;49.80;;;;;;5132064;28;20046;-66
2022/04/14 04:22:10;;;;;;;11.63;5.57;;;12.70;49.60;;;;;;5132070;28;20023;-67
2022/04/14 04:24:36;;;;;;;14.05;5.63;;;12.70;49.50;;;;;;5131833;27;20031;-65
2022/04/14 04:27:02;;;;;;;9.80;5.75;;;12.80;49.40;;;;;;5132471;27;20088;-66
2022/04/14 04:29:28;;;;;;;8.38;5.40;;;12.80;49.30;;;;;;5132697;28;20031;-66
2022/04/14 04:31:54;;;;;;;10.00;6.10;;;12.80;49.00;;;;;;5132032;27;20023;-66
2022/04/14 04:34:19;;;;;;;10.68;5.80;;;12.80;48.80;;;;;;5132160;28;20023;-66
2022/04/14 04:36:45;;;;;;;8.32;5.32;;;12.80;48.70;;;;;;5131738;27;20015;-67
2022/04/14 04:39:11;;;;;;;9.35;5.30;;;12.90;48.60;;;;;;5114404;28;20027;-67
2022/04/14 04:41:55;;;;;;;11.77;5.60;;;12.90;48.40;;;;;;5131668;27;20586;-66
2022/04/14 04:44:21;;;;;;;10.35;5.45;;;12.90;48.20;;;;;;5132142;28;20031;-65
2022/04/14 04:46:47;;;;;;;12.70;5.25;;;12.90;48.90;;;;;;5131728;28;20531;-65
2022/04/14 04:49:12;;;;;;;13.35;5.25;;;12.90;48.00;;;;;;5135602;27;20050;-65
2022/04/14 04:51:38;;;;;;;10.75;5.82;;;13.00;47.90;;;;;;5135446;27;20376;-67
2022/04/14 04:54:04;;;;;;;10.32;5.25;;;13.10;47.80;;;;;;5135764;27;20054;-67
2022/04/14 04:56:29;;;;;;;10.20;5.05;;;13.10;47.60;;;;;;5135710;27;20028;-66
2022/04/14 04:58:55;;;;;;;14.80;5.88;;;13.10;47.50;;;;;;5136727;27;20081;-67
2022/04/14 05:01:21;;;;;;;11.52;5.80;;;13.10;47.60;;;;;;5117437;27;20361;-65
2022/04/14 05:03:47;;;;;;;14.95;5.65;;;13.10;47.60;;;;;;5117179;27;20023;-66
2022/04/14 05:06:12;;;;;;;11.20;6.32;;;13.10;47.50;;;;;;5135694;27;20027;-68
2022/04/14 05:08:38;;;;;;;12.43;5.60;;;13.20;47.40;;;;;;5117392;27;20034;-67
2022/04/14 05:11:04;;;;;;;13.02;5.55;;;13.20;47.20;;;;;;5136040;27;20027;-65
2022/04/14 05:13:29;;;;;;;10.52;6.18;;;13.20;47.10;;;;;;5135187;27;20023;-66
2022/04/14 05:15:55;;;;;;;15.75;4.95;;;13.30;47.10;;;;;;5136095;27;20110;-67
2022/04/14 05:18:21;;;;;;;15.23;5.35;;;13.40;46.90;;;;;;5117665;27;20023;-67
2022/04/14 05:20:46;;;;;;;13.13;5.65;;;13.40;46.50;;;;;;5135387;27;20015;-68
2022/04/14 05:23:12;;;;;;;12.40;5.63;;;13.40;46.40;;;;;;5135603;27;20467;-66
2022/04/14 05:25:41;;;;;;;14.45;5.50;;;13.40;46.40;;;;;;5134629;27;20391;-67
2022/04/14 05:28:07;;;;;;;11.43;5.30;;;13.50;46.30;;;;;;5135958;27;20175;-68
2022/04/14 05:30:33;;;;;;;11.23;5.25;;;13.60;46.20;;;;;;5134974;27;20055;-66
2022/04/14 05:32:58;;;;;;;10.50;5.60;;;13.60;46.00;;;;;;5135749;27;20107;-68
2022/04/14 05:35:24;;;;;;;12.27;5.60;;;13.70;45.90;;;;;;5135681;27;20050;-67
2022/04/14 05:37:50;;;;;;;8.40;5.55;;;13.70;45.70;;;;;;5134886;27;20042;-66
2022/04/14 05:40:15;;;;;;;11.82;4.80;;;13.80;45.60;;;;;;5135058;27;20049;-66
2022/04/14 05:42:45;;;;;;;8.18;5.43;;;13.80;45.50;;;;;;5134736;27;20027;-67
2022/04/14 05:45:12;;;;;;;9.13;4.63;;;13.80;45.30;;;;;;5116381;27;20041;-66
2022/04/14 05:47:38;;;;;;;13.50;5.43;;;13.90;45.10;;;;;;5134343;27;20046;-67
2022/04/14 05:50:04;;;;;;;11.10;5.18;;;13.90;45.10;;;;;;5136055;27;20027;-67
2022/04/14 05:52:30;;;;;;;11.30;5.00;;;13.90;44.80;;;;;;5116900;27;20030;-65
2022/04/14 05:55:01;;;;;;;12.07;5.22;;;14.00;45.00;;;;;;5134593;27;20313;-66
2022/04/14 05:57:28;;;;;;;12.27;5.80;;;14.00;44.70;;;;;;5132880;27;20027;-62
2022/04/14 05:59:54;;;;;;;10.95;5.57;;;14.00;44.70;;;;;;5132454;27;20051;-66
2022/04/14 06:02:20;;;;;;;18.63;5.47;;;14.10;44.50;;;;;;5133909;27;20062;-66
2022/04/14 06:04:46;;;;;;;11.07;4.95;;;14.00;44.40;;;;;;5134025;27;20037;-67
2022/04/14 06:07:11;;;;;;;8.98;4.90;;;14.10;44.40;;;;;;5134508;27;20031;-66
2022/04/14 06:09:37;;;;;;;10.00;5.13;;;14.20;44.20;;;;;;5134626;27;20023;-68
2022/04/14 06:12:03;;;;;;;16.85;5.10;;;14.20;44.10;;;;;;5134803;27;20031;-68
2022/04/14 06:14:30;;;;;;;15.60;5.20;;;14.30;44.10;;;;;;5115667;27;20049;-63
2022/04/14 06:16:56;;;;;;;12.55;5.28;;;14.40;44.00;;;;;;5115793;27;20029;-65
2022/04/14 06:19:22;;;;;;;14.88;5.05;;;14.50;43.70;;;;;;5135008;27;20083;-68
2022/04/14 06:21:48;;;;;;;14.75;5.30;;;14.60;43.70;;;;;;5133783;27;20019;-65
2022/04/14 06:24:14;;;;;;;13.88;5.30;;;14.60;43.60;;;;;;5134290;27;20084;-66
2022/04/14 06:26:40;;;;;;;11.82;5.38;;;14.70;43.50;;;;;;5133558;27;20031;-66
2022/04/14 06:29:05;;;;;;;13.70;5.15;;;14.90;43.50;;;;;;5134548;27;20027;-68
2022/04/14 06:31:31;;;;;;;14.13;5.28;;;15.00;43.40;;;;;;5134066;27;20019;-63
2022/04/14 06:33:57;;;;;;;11.88;5.60;;;15.10;43.20;;;;;;5115640;27;20027;-66
2022/04/14 06:36:41;;;;;;;15.63;5.80;;;15.10;43.10;;;;;;5114769;27;20100;-67
2022/04/14 06:39:12;;;;;;;10.60;6.25;;;15.20;43.00;;;;;;5134684;27;20094;-65
2022/04/14 06:41:39;;;;;;;13.60;5.13;;;15.30;42.80;;;;;;5114104;27;20148;-68
2022/04/14 06:44:05;;;;;;;17.15;5.65;;;15.40;42.90;;;;;;5115779;27;20456;-68
2022/04/14 06:46:31;;;;;;;13.05;5.10;;;15.50;42.90;;;;;;5133942;27;20020;-64
2022/04/14 06:48:57;;;;;;;10.20;5.00;;;15.60;42.60;;;;;;5114356;27;20493;-66
2022/04/14 06:51:23;;;;;;;9.38;5.18;;;15.50;42.50;;;;;;5114370;27;20016;-67
2022/04/14 06:53:49;;;;;;;14.13;5.28;;;15.60;42.70;;;;;;5132964;27;20034;-66
2022/04/14 06:56:15;;;;;;;12.32;4.93;;;15.80;42.60;;;;;;5115153;27;20027;-69
2022/04/14 06:58:42;;;;;;;12.02;5.45;;;15.90;42.40;;;;;;5133176;27;20023;-65
2022/04/14 07:01:08;;;;;;;17.20;5.35;;;16.00;42.10;;;;;;5133450;27;20026;-66
2022/04/14 07:03:34;;;;;;;12.02;5.38;;;16.20;41.80;;;;;;5132993;27;20072;-63
2022/04/14 07:06:00;;;;;;;11.43;6.70;;;16.30;41.40;;;;;;5114574;27;20023;-66
2022/04/14 07:08:32;;;;;;;12.80;6.32;;;16.40;41.10;;;;;;5115010;27;20031;-67
2022/04/14 07:10:59;;;;;;;12.73;6.78;;;16.40;41.10;;;;;;5098288;27;20027;-67
2022/04/14 07:13:26;;;;;;;15.38;6.07;;;16.60;41.00;;;;;;5133259;27;20038;-69
2022/04/14 07:15:55;;;;;;;12.60;5.85;;;16.90;40.80;;;;;;5132782;27;20019;-67
2022/04/14 07:18:22;;;;;;;11.25;5.10;;;19.30;39.60;;;;;;5115048;27;20467;-68
2022/04/14 07:20:48;;;;;;;18.85;5.95;;;22.60;35.00;;;;;;5132526;27;20030;-66
2022/04/14 07:23:14;;;;;;;9.25;5.82;;;25.50;31.40;;;;;;5132747;27;20031;-67
2022/04/14 07:25:40;;;;;;;10.60;5.00;;;28.20;29.30;;;;;;5132054;27;20027;-66
2022/04/14 07:28:07;;;;;;;14.23;5.60;;;30.10;26.90;;;;;;5114950;27;20076;-67
2022/04/14 07:30:33;;;;;;;7.05;5.18;;;31.80;26.20;;;;;;5113495;27;20023;-67
2022/04/14 07:33:00;;;;;;;11.68;5.35;;;33.20;24.80;;;;;;5113765;27;20031;-68
2022/04/14 07:35:26;;;;;;;12.27;5.22;;;34.50;24.00;;;;;;5114166;27;20023;-66
2022/04/14 07:37:52;;;;;;;14.75;5.53;;;35.60;23.00;;;;;;5132360;27;20030;-67
2022/04/14 07:40:19;;;;;;;13.90;4.80;;;35.70;22.30;;;;;;5133218;27;20034;-68
2022/04/14 07:42:47;;;;;;;17.30;4.90;;;35.70;22.00;;;;;;5114619;27;20023;-67
2022/04/14 07:45:18;;;;;;;10.02;4.60;;;36.10;21.80;;;;;;5114985;27;20027;-69
2022/04/14 07:47:45;;;;;;;11.55;4.82;;;36.20;21.40;;;;;;5132091;27;20521;-67
2022/04/14 07:50:16;;;;;;;11.95;4.72;;;35.80;21.50;;;;;;5114873;27;20475;-68
2022/04/14 07:52:52;;;;;;;12.05;4.88;;;35.50;21.50;;;;;;5131488;27;20464;-66
2022/04/14 07:55:31;;;;;;;13.23;5.05;;;35.90;21.50;;;;;;5115070;27;20023;-66
2022/04/14 07:58:06;;;;;;;8.63;4.82;;;36.50;21.30;;;;;;5113938;27;20023;-67
2022/04/14 08:00:33;;;;;;;9.50;4.65;;;36.90;21.20;;;;;;5132377;27;20044;-68
2022/04/14 08:03:00;;;;;;;11.52;4.63;;;37.20;20.90;;;;;;5112794;27;20111;-67
2022/04/14 08:05:31;;;;;;;10.10;4.30;;;37.50;20.70;;;;;;5113147;28;20050;-66
2022/04/14 08:07:57;;;;;;;8.77;5.13;;;37.50;20.70;;;;;;5112271;28;20220;-67
2022/04/14 08:10:23;;;;;;;10.40;5.63;;;37.90;20.70;;;;;;5113739;28;20202;-67
2022/04/14 08:12:49;;;;;;;8.88;4.90;;;38.50;20.50;;;;;;5112598;27;20027;-67
2022/04/14 08:15:15;;;;;;;7.40;4.95;;;39.10;20.40;;;;;;5113751;28;20119;-66
2022/04/14 08:17:41;;;;;;;6.90;4.82;;;39.90;20.10;;;;;;5131331;27;20506;-66
2022/04/14 08:20:09;;;;;;;7.85;4.45;;;40.60;20.00;;;;;;5114091;28;20019;-68
2022/04/14 08:22:44;;;;;;;10.55;5.00;;;40.60;19.50;;;;;;5130976;27;20152;-65
2022/04/14 08:25:11;;;;;;;8.63;4.57;;;40.40;19.40;;;;;;5116601;27;20027;-66
2022/04/14 08:27:37;;;;;;;9.05;4.00;;;40.10;19.60;;;;;;5117286;27;20039;-66
2022/04/14 08:30:03;;;;;;;9.40;4.22;;;39.80;19.60;;;;;;5135973;27;20027;-68
2022/04/14 08:32:28;;;;;;;9.40;4.25;;;39.20;19.80;;;;;;5116080;27;20519;-66
2022/04/14 08:34:54;;;;;;;10.55;4.03;;;39.00;19.90;;;;;;5134206;27;20065;-66
2022/04/14 08:37:20;;;;;;;12.27;4.28;;;38.70;19.90;;;;;;5118210;27;20425;-67
2022/04/14 08:39:46;;;;;;;12.52;4.25;;;38.80;20.10;;;;;;5136526;27;20058;-66
2022/04/14 08:42:15;;;;;;;9.35;4.25;;;39.20;19.90;;;;;;5117709;27;20043;-67
2022/04/14 08:44:49;;;;;;;8.82;4.55;;;39.30;19.80;;;;;;5117842;27;20030;-66
2022/04/14 08:47:16;;;;;;;8.68;4.32;;;39.20;19.60;;;;;;5137492;27;20023;-68
2022/04/14 08:49:45;;;;;;;10.73;4.10;;;38.40;19.80;;;;;;5136279;27;20083;-67
2022/04/14 08:52:15;;;;;;;9.80;4.10;;;37.90;20.00;;;;;;5136361;27;20027;-68
2022/04/14 08:54:44;;;;;;;8.15;3.58;;;36.20;20.30;;;;;;5135571;27;20031;-66
2022/04/14 08:57:13;;;;;;;9.98;3.45;;;33.60;21.30;;;;;;5136363;27;20452;-67
2022/04/14 08:59:43;;;;;;;12.05;3.58;;;31.50;22.40;;;;;;5118138;27;20035;-70
2022/04/14 09:02:16;;;;;;;9.90;4.25;;;29.80;23.40;;;;;;5136570;27;20121;-69
2022/04/14 09:04:43;;;;;;;9.18;3.65;;;28.30;24.30;;;;;;5112542;27;20027;-63
2022/04/14 09:07:10;;;;;;;9.02;3.60;;;27.40;25.00;;;;;;5131244;27;20084;-68
2022/04/14 09:09:37;;;;;;;10.73;3.63;;;26.50;25.80;;;;;;5132446;27;20028;-65
2022/04/14 09:12:07;;;;;;;9.23;4.13;;;25.80;26.30;;;;;;5131658;27;20026;-65
2022/04/14 09:14:37;;;;;;;10.70;3.80;;;25.20;26.90;;;;;;5114911;27;20117;-68
2022/04/14 09:17:07;;;;;;;15.70;4.03;;;24.80;27.40;;;;;;5134226;27;20117;-67
2022/04/14 09:19:35;;;;;;;10.93;3.65;;;24.40;27.80;;;;;;5135810;27;20529;-64
2022/04/14 09:22:04;;;;;;;14.88;4.50;;;24.10;28.20;;;;;;5116082;27;20035;-68
2022/04/14 09:24:45;;;;;;;10.68;3.97;;;23.70;28.70;;;;;;5116590;27;20031;-68
2022/04/14 09:27:27;;;;;;;11.52;4.20;;;23.50;29.00;;;;;;5113854;27;20027;-69
2022/04/14 09:29:55;;;;;;;12.35;3.90;;;23.40;29.30;;;;;;5114164;27;20023;-69
2022/04/14 09:32:38;;;;;;;11.68;4.13;;;23.10;29.60;;;;;;5133258;27;20023;-62
2022/04/14 09:35:14;;;;;;;14.60;4.10;;;22.80;30.00;;;;;;5112980;27;20310;-62
2022/04/14 09:37:40;;;;;;;10.30;4.18;;;22.70;30.30;;;;;;5133643;27;20106;-63
2022/04/14 09:40:11;;;;;;;11.93;4.07;;;22.70;30.50;;;;;;5111302;27;20106;-63
2022/04/14 09:42:43;;;;;;;15.57;3.78;;;22.70;30.40;;;;;;5115382;27;20038;-63
2022/04/14 09:45:26;;;;;;;9.50;3.90;;;22.70;30.30;;;;;;5133758;27;20034;-62
2022/04/14 09:47:53;;;;;;;6.38;3.60;;;22.70;30.60;;;;;;5133867;27;20102;-63
2022/04/14 09:50:39;;;;;;;9.23;4.10;;;22.50;30.80;;;;;;5134905;27;20130;-63
2022/04/14 09:53:14;;;;;;;9.77;3.80;;;22.40;31.00;;;;;;5133995;27;20445;-63
2022/04/14 09:55:56;;;;;;;19.30;4.93;;;22.40;31.00;;;;;;5135238;27;20035;-63
2022/04/14 09:58:24;;;;;;;9.23;3.58;;;22.50;31.10;;;;;;5116244;27;20091;-62
2022/04/14 10:00:55;;;;;;;6.57;3.80;;;22.60;30.80;;;;;;5116233;27;20337;-61
2022/04/14 10:03:24;;;;;;;12.75;4.28;;;22.60;31.30;;;;;;5134227;27;20455;-63
2022/04/14 10:05:57;;;;;;;10.73;3.80;;;22.60;30.70;;;;;;5133751;27;20026;-63
2022/04/14 10:08:24;;;;;;;5.73;3.50;;;22.60;30.70;;;;;;5134842;27;20484;-64
2022/04/14 10:11:03;;;;;;;12.35;4.20;;;22.50;30.60;;;;;;5133398;27;20069;-62
2022/04/14 10:13:37;;;;;;;11.23;3.95;;;22.60;30.70;;;;;;5116136;27;20027;-63
2022/04/14 10:16:04;;;;;;;7.25;3.95;;;22.70;30.40;;;;;;5115070;27;20035;-60
2022/04/14 10:18:31;;;;;;;9.00;3.75;;;22.70;30.20;;;;;;5115465;27;20109;-63
2022/04/14 10:20:57;;;;;;;12.18;3.20;;;22.80;30.00;;;;;;5133241;27;20459;-63
2022/04/14 10:23:25;;;;;;;13.18;3.85;;;22.90;29.80;;;;;;5133918;27;20031;-62
2022/04/14 10:25:55;;;;;;;14.13;3.40;;;22.70;29.90;;;;;;5114970;27;20023;-63
2022/04/14 10:28:23;;;;;;;12.75;4.20;;;22.70;30.00;;;;;;5115135;27;20034;-62
2022/04/14 10:30:58;;;;;;;11.50;3.92;;;22.70;30.00;;;;;;5133221;27;20053;-63
2022/04/14 10:33:24;;;;;;;10.98;3.58;;;22.70;29.90;;;;;;5133653;27;20078;-62
2022/04/14 10:35:51;;;;;;;9.10;3.92;;;22.80;29.90;;;;;;5133562;27;20023;-62
2022/04/14 10:38:28;;;;;;;7.70;4.30;;;22.80;29.90;;;;;;5114418;27;20168;-62
2022/04/14 10:41:02;;;;;;;11.07;4.07;;;22.90;29.90;;;;;;5133194;27;20039;-68
2022/04/14 10:43:29;;;;;;;10.88;4.00;;;23.00;29.90;;;;;;5133459;27;20421;-61
2022/04/14 10:46:00;;;;;;;8.63;3.55;;;23.10;29.60;;;;;;5114214;27;20498;-61
2022/04/14 10:48:34;;;;;;;11.68;3.60;;;22.90;29.50;;;;;;5133408;27;20491;-63
2022/04/14 10:51:29;;;;;;;9.18;4.00;;;22.90;29.70;;;;;;5132031;27;20043;-63
2022/04/14 10:53:55;;;;;;;9.43;3.78;;;22.70;29.80;;;;;;5132284;27;20055;-62
2022/04/14 10:56:42;;;;;;;10.30;3.28;;;22.70;29.90;;;;;;5114553;27;20042;-64
2022/04/14 10:59:14;;;;;;;8.48;5.25;;;22.70;29.80;;;;;;5133199;27;20025;-63
2022/04/14 11:01:47;;;;;;;11.82;3.55;;;22.80;29.90;;;;;;5115144;27;20112;-64
2022/04/14 11:04:35;;;;;;;7.13;3.65;;;23.00;29.80;;;;;;5132351;27;20084;-68
2022/04/14 11:07:15;;;;;;;12.45;3.97;;;23.00;30.00;;;;;;5109219;27;20031;-67
2022/04/14 11:09:58;;;;;;;17.98;3.90;;;23.10;29.80;;;;;;5129876;27;20026;-66
2022/04/14 11:12:38;;;;;;;9.18;3.40;;;23.20;29.60;;;;;;5113648;27;20023;-66
2022/04/14 11:15:06;;;;;;;10.40;3.78;;;23.30;29.60;;;;;;5112780;27;20115;-64
2022/04/14 11:17:38;;;;;;;7.45;3.78;;;23.40;29.50;;;;;;5113492;27;20512;-63
2022/04/14 11:20:18;;;;;;;5.65;3.75;;;23.40;29.40;;;;;;5112004;27;20177;-66
2022/04/14 11:23:04;;;;;;;8.30;3.72;;;23.40;29.40;;;;;;5113749;27;20023;-64
2022/04/14 11:25:42;;;;;;;12.02;3.70;;;23.20;29.60;;;;;;5112804;27;20439;-72
2022/04/14 11:28:36;;;;;;;9.93;3.45;;;23.20;29.60;;;;;;5131412;27;20037;-66
2022/04/14 11:31:04;;;;;;;8.23;3.47;;;23.20;29.70;;;;;;5130641;27;20027;-66
2022/04/14 11:33:29;;;;;;;9.57;3.78;;;23.20;29.90;;;;;;5131142;27;20057;-64
2022/04/14 11:36:13;;;;;;;16.23;4.47;;;23.30;30.00;;;;;;5112441;27;20107;-65
2022/04/14 11:38:50;;;;;;;;;;;23.40;29.80;;;;;;5132311;27;20034;-64
2022/04/14 11:41:44;;;;;;;13.77;4.03;;;23.50;29.80;;;;;;5112739;27;19915;-66
2022/04/14 11:44:27;;;;;;;11.40;4.10;;;23.60;29.70;;;;;;5130593;27;20029;-65
2022/04/14 11:46:55;;;;;;;10.20;4.03;;;23.60;29.60;;;;;;5130663;27;20592;-66
2022/04/14 11:49:23;;;;;;;9.77;4.05;;;23.60;29.80;;;;;;5131416;27;20091;-67
2022/04/14 11:51:53;;;;;;;11.27;4.30;;;23.60;29.80;;;;;;5112708;27;20031;-67
2022/04/14 11:54:31;;;;;;;11.02;4.70;;;23.80;29.80;;;;;;5095043;27;20035;-66
2022/04/14 11:57:09;;;;;;;9.65;3.97;;;23.90;29.70;;;;;;5112179;27;20075;-68
2022/04/14 11:59:41;;;;;;;8.85;4.00;;;23.90;30.10;;;;;;5113133;27;20417;-69
2022/04/14 12:02:09;;;;;;;9.48;4.00;;;23.90;29.50;;;;;;5112028;27;20052;-67
2022/04/14 12:04:45;;;;;;;7.93;4.28;;;23.90;29.60;;;;;;5112933;27;20042;-69
2022/04/14 12:07:13;;;;;;;7.57;4.03;;;23.80;29.70;;;;;;5131047;27;20233;-67
2022/04/14 12:09:43;;;;;;;13.68;3.72;;;23.70;29.90;;;;;;5112908;27;20467;-68
2022/04/14 12:12:19;;;;;;;10.27;4.03;;;23.70;29.90;;;;;;5112068;28;20026;-68
2022/04/14 12:14:47;;;;;;;9.75;3.92;;;23.70;29.90;;;;;;5113079;27;20031;-69
2022/04/14 12:17:16;;;;;;;6.15;3.60;;;23.90;29.80;;;;;;5131191;27;20470;-67
2022/04/14 12:19:50;;;;;;;6.70;3.40;;;24.10;29.70;;;;;;5131563;27;20047;-68
2022/04/14 12:22:16;;;;;;;9.32;3.88;;;24.10;29.50;;;;;;5111852;28;20568;-68
2022/04/14 12:24:55;;;;;;;12.80;3.35;;;24.00;29.60;;;;;;5112231;28;20027;-67
2022/04/14 12:27:23;;;;;;;6.97;3.50;;;23.90;29.60;;;;;;5131176;28;20023;-67
2022/04/14 12:29:51;;;;;;;10.15;3.80;;;23.90;29.70;;;;;;5112656;28;20026;-66
2022/04/14 12:32:18;;;;;;;12.63;3.40;;;24.00;29.80;;;;;;5130909;27;20079;-65
2022/04/14 12:34:45;;;;;;;6.43;3.30;;;24.00;29.70;;;;;;5131014;27;20028;-67
2022/04/14 12:37:13;;;;;;;8.35;4.22;;;24.10;29.70;;;;;;5130521;27;20039;-65
2022/04/14 12:40:00;;;;;;;8.55;4.00;;;24.20;29.50;;;;;;5131243;27;20027;-66
2022/04/14 12:42:44;;;;;;;9.77;3.30;;;24.10;29.50;;;;;;5111138;28;20061;-66
2022/04/14 12:45:12;;;;;;;8.60;3.40;;;24.00;29.50;;;;;;5108847;28;20024;-66
2022/04/14 12:47:41;;;;;;;12.18;5.00;;;24.10;29.50;;;;;;5109710;28;20103;-66
2022/04/14 12:50:07;;;;;;;6.22;3.53;;;24.30;29.50;;;;;;5107973;28;20050;-67